Time;durP1;ratioP1;P1;durP2;ratioP2;P2;SDS_P1;SDS_P2;PMS_P1;PMS_P2;Temp;Humidity;BMP_temperature;BMP_pressure;BME280_temperature;BME280_humidity;BME280_pressure;Samples;Min_cycle;Max_cycle;Signal;HPM_P1;HPM_P2
2021/12/03 00:02:03;;;;;;;6.53;1.47;;;7.30;99.90;;;;;;5011624;28;20296;-89
2021/12/03 00:04:37;;;;;;;11.00;2.30;;;7.20;99.90;;;;;;5007419;28;20205;-91
2021/12/03 00:07:10;;;;;;;10.27;1.97;;;7.20;99.90;;;;;;5026510;28;20259;-90
2021/12/03 00:09:42;;;;;;;10.63;1.77;;;7.10;99.90;;;;;;4989061;28;20206;-89
2021/12/03 00:12:14;;;;;;;6.57;1.63;;;7.10;99.90;;;;;;5018167;28;20212;-88
2021/12/03 00:14:47;;;;;;;7.40;1.90;;;7.00;99.90;;;;;;5025562;28;20261;-88
2021/12/03 00:17:19;;;;;;;8.07;1.90;;;7.10;99.90;;;;;;5026389;28;20201;-88
2021/12/03 00:19:53;;;;;;;9.17;2.30;;;7.10;99.90;;;;;;5019875;28;20244;-88
2021/12/03 00:22:25;;;;;;;6.07;1.90;;;7.00;99.90;;;;;;5015438;28;20672;-88
2021/12/03 00:24:58;;;;;;;6.90;1.73;;;7.00;99.90;;;;;;5023525;28;20257;-88
2021/12/03 00:27:30;;;;;;;8.47;1.80;;;6.90;99.90;;;;;;5036827;28;20249;-88
2021/12/03 00:30:03;;;;;;;10.00;2.40;;;6.80;99.90;;;;;;5016948;28;20321;-88
2021/12/03 00:32:36;;;;;;;11.07;1.97;;;6.80;99.90;;;;;;5017373;28;20265;-89
2021/12/03 00:35:16;;;;;;;7.70;2.00;;;6.80;99.90;;;;;;5003945;28;20252;-86
2021/12/03 00:37:50;;;;;;;8.70;1.90;;;6.80;99.90;;;;;;5027319;28;20200;-91
2021/12/03 00:40:29;;;;;;;5.63;1.63;;;6.80;99.90;;;;;;5013044;28;20236;-89
2021/12/03 00:43:02;;;;;;;5.37;1.70;;;6.70;99.90;;;;;;5269894;22;20244;-89
2021/12/03 00:45:38;;;;;;;8.27;1.87;;;6.70;99.90;;;;;;5020985;28;20204;-89
2021/12/03 00:48:15;;;;;;;12.03;1.80;;;6.70;99.90;;;;;;5030186;28;20205;-88
2021/12/03 00:50:50;;;;;;;9.20;2.13;;;6.70;99.90;;;;;;5026640;28;20209;-88
2021/12/03 00:53:23;;;;;;;9.33;1.70;;;6.70;99.90;;;;;;5028407;28;20201;-87
2021/12/03 00:58:41;;;;;;;8.07;1.63;;;6.60;99.90;;;;;;5028733;28;20205;-89
2021/12/03 01:04:11;;;;;;;10.53;2.03;;;6.60;99.90;;;;;;5016394;28;20260;-91
2021/12/03 01:06:51;;;;;;;11.37;2.33;;;6.60;99.90;;;;;;5011475;28;20202;-90
2021/12/03 01:09:24;;;;;;;9.50;1.77;;;6.60;99.90;;;;;;5027776;28;20206;-87
2021/12/03 01:11:58;;;;;;;6.33;1.40;;;6.60;99.90;;;;;;5028666;28;20260;-89
2021/12/03 01:14:31;;;;;;;4.70;1.30;;;6.60;99.90;;;;;;5017675;28;20208;-90
2021/12/03 01:17:06;;;;;;;8.13;1.87;;;6.60;99.90;;;;;;5030943;28;20286;-90
2021/12/03 01:19:49;;;;;;;7.03;1.97;;;6.60;99.90;;;;;;5004415;28;20197;-91
2021/12/03 01:22:27;;;;;;;7.50;1.70;;;6.70;99.90;;;;;;5020518;28;20207;-90
2021/12/03 01:25:00;;;;;;;8.80;2.17;;;6.70;99.90;;;;;;5009516;28;20210;-89
2021/12/03 01:27:34;;;;;;;10.63;1.93;;;6.70;99.90;;;;;;5024792;28;20206;-91
2021/12/03 01:30:10;;;;;;;7.60;2.63;;;6.70;99.90;;;;;;5016131;28;20229;-91
2021/12/03 01:32:42;;;;;;;8.17;2.07;;;6.70;99.90;;;;;;5029673;28;20229;-91
2021/12/03 01:35:16;;;;;;;7.33;1.83;;;6.70;99.90;;;;;;5025601;28;20253;-93
2021/12/03 01:37:52;;;;;;;8.90;2.20;;;6.70;99.90;;;;;;5023453;28;20293;-92
2021/12/03 01:40:27;;;;;;;6.73;2.20;;;6.80;99.90;;;;;;5030686;28;20227;-90
2021/12/03 01:43:01;;;;;;;7.07;2.23;;;6.80;99.90;;;;;;5023657;28;20310;-91
2021/12/03 01:45:45;;;;;;;10.17;2.10;;;6.80;99.90;;;;;;5019737;28;20219;-90
2021/12/03 01:48:18;;;;;;;8.53;2.60;;;6.70;99.90;;;;;;5033754;28;20309;-92
2021/12/03 01:50:53;;;;;;;7.10;2.53;;;6.70;99.90;;;;;;5032840;28;20273;-91
2021/12/03 01:53:32;;;;;;;9.23;2.90;;;6.70;99.90;;;;;;5029536;28;20288;-91
2021/12/03 01:56:12;;;;;;;6.57;1.70;;;6.70;99.90;;;;;;5031611;28;20218;-91
2021/12/03 01:58:47;;;;;;;6.17;2.00;;;6.60;99.90;;;;;;5032210;28;20304;-90
2021/12/03 02:01:24;;;;;;;5.27;1.20;;;6.60;99.90;;;;;;5016923;28;20233;-92
2021/12/03 02:04:00;;;;;;;7.00;1.63;;;6.60;99.90;;;;;;5032715;28;20805;-90
2021/12/03 02:06:34;;;;;;;7.80;1.93;;;6.50;99.90;;;;;;5028233;28;20229;-90
2021/12/03 02:09:10;;;;;;;9.43;1.73;;;6.50;99.90;;;;;;5026111;28;20266;-90
2021/12/03 02:11:44;;;;;;;4.70;1.60;;;6.40;99.90;;;;;;5024632;28;20237;-89
2021/12/03 02:14:19;;;;;;;6.97;1.63;;;6.40;99.90;;;;;;5031439;28;20209;-90
2021/12/03 02:16:51;;;;;;;4.00;1.63;;;6.40;99.90;;;;;;5033006;28;20209;-90
2021/12/03 02:19:29;;;;;;;8.37;2.00;;;6.40;99.90;;;;;;5033423;28;20212;-89
2021/12/03 02:22:06;;;;;;;6.00;1.40;;;6.40;99.90;;;;;;5033166;28;20207;-90
2021/12/03 02:24:39;;;;;;;4.70;1.80;;;6.40;99.90;;;;;;5029385;28;20260;-89
2021/12/03 02:27:11;;;;;;;5.93;1.80;;;6.40;99.90;;;;;;5032056;28;20750;-89
2021/12/03 02:29:43;;;;;;;7.70;1.60;;;6.40;99.90;;;;;;5034988;28;20221;-89
2021/12/03 02:32:16;;;;;;;8.03;1.97;;;6.40;99.90;;;;;;5034840;28;20232;-91
2021/12/03 02:34:48;;;;;;;3.90;1.70;;;6.40;99.90;;;;;;5034662;28;20194;-90
2021/12/03 02:37:25;;;;;;;5.70;2.03;;;6.40;99.90;;;;;;5032264;28;20270;-90
2021/12/03 02:39:58;;;;;;;5.80;2.00;;;6.50;99.90;;;;;;5035285;28;20212;-90
2021/12/03 02:42:30;;;;;;;6.57;2.57;;;6.50;99.90;;;;;;5022090;28;20244;-89
2021/12/03 02:45:03;;;;;;;9.07;4.60;;;6.50;99.90;;;;;;5038485;28;20238;-89
2021/12/03 02:47:35;;;;;;;10.27;3.93;;;6.50;99.90;;;;;;5038960;28;20197;-90
2021/12/03 02:50:11;;;;;;;7.20;2.23;;;6.50;99.90;;;;;;5039091;28;20216;-90
2021/12/03 02:52:47;;;;;;;8.03;3.03;;;6.50;99.90;;;;;;5037571;28;20193;-91
2021/12/03 02:55:20;;;;;;;9.07;5.27;;;6.50;99.90;;;;;;5032782;28;20216;-89
2021/12/03 02:57:54;;;;;;;9.07;3.13;;;6.50;99.90;;;;;;5032735;28;20217;-91
2021/12/03 03:00:29;;;;;;;5.13;2.80;;;6.50;99.90;;;;;;5029066;28;20217;-90
2021/12/03 03:03:04;;;;;;;8.07;2.80;;;6.50;99.90;;;;;;5014301;28;20220;-90
2021/12/03 03:05:37;;;;;;;39.63;12.93;;;6.40;99.90;;;;;;5025645;28;20244;-90
2021/12/03 03:08:16;;;;;;;35.03;12.87;;;6.40;99.90;;;;;;5031627;28;20202;-91
2021/12/03 03:10:49;;;;;;;30.73;11.77;;;6.40;99.90;;;;;;5031505;28;20206;-90
2021/12/03 03:13:31;;;;;;;29.87;12.33;;;6.30;99.90;;;;;;5029216;28;20198;-90
2021/12/03 03:16:03;;;;;;;16.87;7.17;;;6.30;99.90;;;;;;5031663;28;20220;-90
2021/12/03 03:18:37;;;;;;;14.60;5.03;;;6.20;99.90;;;;;;5029879;28;20272;-90
2021/12/03 03:21:12;;;;;;;12.47;5.43;;;6.30;99.90;;;;;;5028239;28;20237;-90
2021/12/03 03:23:47;;;;;;;8.23;2.57;;;6.30;99.90;;;;;;5027545;28;20205;-90
2021/12/03 03:26:34;;;;;;;4.07;1.90;;;6.30;99.90;;;;;;5027844;28;20240;-89
2021/12/03 03:29:08;;;;;;;9.77;4.43;;;6.30;99.90;;;;;;5029365;28;20281;-90
2021/12/03 03:31:43;;;;;;;19.80;10.50;;;6.30;99.90;;;;;;5027991;28;20246;-89
2021/12/03 03:34:18;;;;;;;19.17;10.63;;;6.20;99.90;;;;;;5020559;28;20225;-91
2021/12/03 03:36:57;;;;;;;10.33;4.97;;;6.20;99.90;;;;;;5030761;28;20204;-89
2021/12/03 03:39:32;;;;;;;9.83;5.00;;;6.20;99.90;;;;;;5034196;28;20189;-90
2021/12/03 03:42:05;;;;;;;8.20;3.60;;;6.20;99.90;;;;;;5035219;28;20194;-89
2021/12/03 03:44:39;;;;;;;6.67;3.10;;;6.30;99.90;;;;;;5035646;28;20268;-91
2021/12/03 03:47:11;;;;;;;8.10;2.87;;;6.30;99.90;;;;;;5035392;28;20222;-90
2021/12/03 03:49:45;;;;;;;12.47;5.20;;;6.30;99.90;;;;;;5031776;28;20261;-90
2021/12/03 03:52:17;;;;;;;11.33;4.47;;;6.30;99.90;;;;;;5004364;28;20214;-90
2021/12/03 03:54:52;;;;;;;9.70;4.00;;;6.30;99.90;;;;;;5028793;28;20235;-89
2021/12/03 03:57:25;;;;;;;8.00;3.93;;;6.30;99.90;;;;;;4993379;28;20214;-90
2021/12/03 03:59:59;;;;;;;12.33;3.60;;;6.30;99.90;;;;;;5009884;28;20209;-90
2021/12/03 04:02:33;;;;;;;8.83;2.73;;;6.30;99.90;;;;;;5018885;28;20293;-90
2021/12/03 04:05:07;;;;;;;9.17;3.53;;;6.30;99.90;;;;;;5012462;28;20245;-90
2021/12/03 04:07:43;;;;;;;10.60;4.17;;;6.30;99.90;;;;;;5022227;28;20247;-90
2021/12/03 04:10:17;;;;;;;10.67;4.10;;;6.30;99.90;;;;;;5024970;28;20209;-90
2021/12/03 04:12:52;;;;;;;9.50;3.37;;;6.30;99.90;;;;;;5022904;28;20235;-91
2021/12/03 04:15:25;;;;;;;10.13;2.87;;;6.30;99.90;;;;;;5031754;28;20216;-90
2021/12/03 04:17:57;;;;;;;12.00;2.87;;;6.20;99.90;;;;;;5033427;28;20237;-91
2021/12/03 04:20:34;;;;;;;9.27;2.40;;;6.20;99.90;;;;;;5035209;28;20198;-88
2021/12/03 04:23:18;;;;;;;10.00;3.00;;;6.20;99.90;;;;;;5036485;28;20182;-89
2021/12/03 04:25:56;;;;;;;11.17;2.80;;;6.20;99.90;;;;;;5033396;28;20265;-90
2021/12/03 04:28:31;;;;;;;6.70;2.53;;;6.20;99.90;;;;;;5031507;28;20285;-91
2021/12/03 04:31:06;;;;;;;11.43;2.70;;;6.20;99.90;;;;;;5029811;28;20201;-90
2021/12/03 04:33:38;;;;;;;7.17;2.90;;;6.10;99.90;;;;;;5027092;28;20208;-90
2021/12/03 04:36:12;;;;;;;7.70;3.40;;;6.10;99.90;;;;;;5032866;28;20257;-90
2021/12/03 04:38:45;;;;;;;6.97;2.67;;;6.10;99.90;;;;;;5033133;28;20261;-89
2021/12/03 04:41:36;;;;;;;6.73;2.30;;;6.10;99.90;;;;;;5018142;28;20264;-87
2021/12/03 04:44:12;;;;;;;10.07;1.97;;;6.10;99.90;;;;;;5102567;23;20238;-88
2021/12/03 04:46:46;;;;;;;8.67;2.73;;;6.00;99.90;;;;;;5012390;28;20269;-89
2021/12/03 04:49:19;;;;;;;10.20;3.40;;;5.90;99.90;;;;;;5000340;28;20278;-89
2021/12/03 04:51:54;;;;;;;5.40;2.60;;;5.90;99.90;;;;;;4995748;28;20187;-89
2021/12/03 04:54:27;;;;;;;8.03;2.77;;;5.80;99.90;;;;;;4988735;28;20230;-90
2021/12/03 04:57:01;;;;;;;7.17;2.87;;;5.80;99.90;;;;;;4990289;28;20209;-89
2021/12/03 04:59:33;;;;;;;7.80;2.43;;;5.70;99.90;;;;;;4989906;28;20224;-90
2021/12/03 05:02:05;;;;;;;6.37;2.80;;;5.70;99.90;;;;;;4996476;28;20198;-91
2021/12/03 05:04:39;;;;;;;5.17;2.40;;;5.70;99.90;;;;;;5004555;28;20191;-90
2021/12/03 05:07:41;;;;;;;6.07;3.10;;;5.70;99.90;;;;;;5017027;28;20245;-90
2021/12/03 05:10:14;;;;;;;9.43;2.73;;;5.70;99.90;;;;;;5016656;28;20190;-90
2021/12/03 05:12:48;;;;;;;7.43;2.50;;;5.80;99.90;;;;;;5010993;28;20210;-90
2021/12/03 05:15:34;;;;;;;6.73;2.30;;;5.80;99.90;;;;;;5000510;28;20214;-90
2021/12/03 05:18:07;;;;;;;6.27;2.10;;;5.80;99.90;;;;;;4997610;28;20258;-90
2021/12/03 05:20:40;;;;;;;9.67;2.77;;;5.80;99.90;;;;;;5005852;28;20210;-90
2021/12/03 05:23:12;;;;;;;8.73;2.60;;;5.80;99.90;;;;;;5008006;28;20226;-90
2021/12/03 05:25:44;;;;;;;10.57;2.37;;;5.90;99.90;;;;;;5001457;28;20234;-90
2021/12/03 05:28:19;;;;;;;8.73;2.40;;;5.80;99.90;;;;;;4993752;28;20746;-89
2021/12/03 05:30:55;;;;;;;7.20;2.90;;;5.80;99.90;;;;;;4989453;28;20209;-89
2021/12/03 05:33:28;;;;;;;10.17;2.70;;;5.80;99.90;;;;;;4992467;28;20248;-89
2021/12/03 05:36:00;;;;;;;4.13;2.30;;;5.80;99.90;;;;;;4991363;28;20206;-89
2021/12/03 05:38:33;;;;;;;6.43;2.60;;;5.80;99.90;;;;;;5001323;28;20318;-89
2021/12/03 05:41:06;;;;;;;9.30;2.20;;;5.80;99.90;;;;;;4985348;28;20244;-89
2021/12/03 05:43:42;;;;;;;4.83;2.17;;;5.80;99.90;;;;;;5001625;28;20218;-91
2021/12/03 05:46:17;;;;;;;6.20;2.10;;;5.70;99.90;;;;;;4999771;28;20237;-89
2021/12/03 05:48:50;;;;;;;5.50;1.87;;;5.70;99.90;;;;;;4993891;28;20220;-90
2021/12/03 05:51:26;;;;;;;6.00;1.97;;;5.70;99.90;;;;;;4984198;28;20218;-89
2021/12/03 05:53:58;;;;;;;6.07;2.00;;;5.70;99.90;;;;;;5000380;28;20294;-90
2021/12/03 05:56:37;;;;;;;6.00;2.27;;;5.70;99.90;;;;;;5034872;23;20255;-89
2021/12/03 05:59:11;;;;;;;6.17;1.73;;;5.70;99.90;;;;;;5020571;28;20201;-90
2021/12/03 06:01:44;;;;;;;8.90;2.20;;;5.70;99.90;;;;;;5018774;28;20202;-89
2021/12/03 06:04:17;;;;;;;4.23;2.00;;;5.70;99.90;;;;;;4999802;28;20210;-90
2021/12/03 06:06:49;;;;;;;9.40;2.27;;;5.70;99.90;;;;;;5020090;28;20229;-89
2021/12/03 06:09:25;;;;;;;6.73;2.00;;;5.80;99.90;;;;;;5021175;28;20205;-89
2021/12/03 06:12:02;;;;;;;8.27;1.83;;;5.70;99.90;;;;;;5020329;28;20205;-89
2021/12/03 06:14:37;;;;;;;3.90;1.60;;;5.60;99.90;;;;;;5011397;28;20229;-91
2021/12/03 06:17:12;;;;;;;4.80;1.60;;;5.60;99.90;;;;;;5009859;28;20240;-89
2021/12/03 06:19:45;;;;;;;7.23;2.17;;;5.60;99.90;;;;;;5026608;28;20236;-88
2021/12/03 06:22:17;;;;;;;6.90;1.97;;;5.50;99.90;;;;;;5015968;28;20204;-90
2021/12/03 06:24:51;;;;;;;7.07;2.27;;;5.50;99.90;;;;;;5008571;28;20218;-90
2021/12/03 06:27:24;;;;;;;6.87;2.27;;;5.50;99.90;;;;;;5020246;28;20247;-90
2021/12/03 06:30:00;;;;;;;5.00;1.83;;;5.40;99.90;;;;;;5022183;28;20224;-89
2021/12/03 06:32:32;;;;;;;9.83;2.40;;;5.40;99.90;;;;;;4990381;28;20212;-89
2021/12/03 06:35:04;;;;;;;6.03;1.80;;;5.30;99.90;;;;;;4998832;28;20218;-89
2021/12/03 06:37:37;;;;;;;6.90;2.00;;;5.30;99.90;;;;;;4983634;28;20273;-90
2021/12/03 06:40:13;;;;;;;7.77;2.37;;;5.10;99.90;;;;;;4999539;28;20225;-90
2021/12/03 06:42:46;;;;;;;7.43;2.37;;;5.10;99.90;;;;;;4999724;28;20256;-90
2021/12/03 06:45:20;;;;;;;7.90;1.73;;;5.00;99.90;;;;;;4998931;28;20203;-89
2021/12/03 06:47:52;;;;;;;9.67;2.10;;;4.90;99.90;;;;;;5000521;28;20213;-91
2021/12/03 06:50:25;;;;;;;6.10;1.93;;;4.90;99.90;;;;;;4999327;28;20210;-89
2021/12/03 06:53:00;;;;;;;7.30;2.20;;;4.80;99.90;;;;;;4999098;28;20221;-89
2021/12/03 06:55:37;;;;;;;4.90;1.90;;;4.70;99.90;;;;;;4977138;28;20686;-89
2021/12/03 06:58:10;;;;;;;8.83;2.10;;;4.70;99.90;;;;;;4979569;28;20259;-90
2021/12/03 07:00:44;;;;;;;4.87;2.00;;;4.60;99.90;;;;;;4980091;28;20215;-90
2021/12/03 07:03:17;;;;;;;9.07;1.60;;;4.50;99.90;;;;;;4980236;28;20220;-90
2021/12/03 07:05:50;;;;;;;5.57;1.70;;;4.50;99.90;;;;;;4979217;28;20242;-90
2021/12/03 07:08:22;;;;;;;4.83;1.60;;;4.40;99.90;;;;;;4963984;28;20206;-90
2021/12/03 07:10:54;;;;;;;9.57;2.07;;;4.40;99.90;;;;;;4980169;28;20218;-89
2021/12/03 07:13:30;;;;;;;4.70;1.90;;;4.40;99.90;;;;;;4986289;28;20212;-89
2021/12/03 07:16:05;;;;;;;7.37;1.90;;;4.30;99.90;;;;;;5007347;28;20218;-89
2021/12/03 07:18:45;;;;;;;9.40;2.10;;;4.30;99.90;;;;;;5015712;28;20270;-89
2021/12/03 07:21:17;;;;;;;5.87;1.83;;;4.20;99.90;;;;;;5017638;28;20273;-89
2021/12/03 07:23:50;;;;;;;5.87;1.80;;;4.20;99.90;;;;;;5023297;28;20265;-87
2021/12/03 07:26:24;;;;;;;4.73;1.90;;;4.20;99.90;;;;;;4988712;28;20857;-89
2021/12/03 07:28:57;;;;;;;4.77;1.67;;;4.10;99.90;;;;;;4987780;28;20210;-90
2021/12/03 07:31:31;;;;;;;8.93;1.70;;;4.10;99.90;;;;;;5000908;28;20681;-89
2021/12/03 07:34:04;;;;;;;4.63;1.53;;;4.00;99.90;;;;;;5001554;28;20213;-88
2021/12/03 07:36:35;;;;;;;3.23;1.60;;;3.90;99.90;;;;;;5000395;28;20220;-88
2021/12/03 07:39:07;;;;;;;8.37;1.87;;;3.90;99.90;;;;;;4998806;28;20210;-89
2021/12/03 07:41:40;;;;;;;4.60;1.70;;;3.80;99.90;;;;;;4999810;28;20206;-89
2021/12/03 07:44:13;;;;;;;8.63;1.77;;;3.80;99.90;;;;;;4998013;28;20218;-89
2021/12/03 07:46:49;;;;;;;5.67;1.83;;;3.70;99.90;;;;;;4994292;28;20226;-88
2021/12/03 07:49:22;;;;;;;7.20;2.63;;;3.60;99.90;;;;;;4996170;28;20209;-89
2021/12/03 07:51:54;;;;;;;5.93;2.53;;;3.50;99.90;;;;;;5000928;28;20218;-89
2021/12/03 07:54:27;;;;;;;9.60;2.87;;;3.50;99.90;;;;;;4996839;28;20225;-89
2021/12/03 07:56:58;;;;;;;10.10;2.27;;;3.40;99.90;;;;;;5000233;28;20220;-90
2021/12/03 07:59:30;;;;;;;7.97;2.10;;;3.50;99.90;;;;;;4998983;28;20217;-89
2021/12/03 08:02:04;;;;;;;6.03;2.20;;;3.40;99.90;;;;;;4999673;28;20669;-90
2021/12/03 08:04:36;;;;;;;7.77;2.07;;;3.40;99.90;;;;;;4979486;28;20415;-90
2021/12/03 08:07:08;;;;;;;4.40;1.87;;;3.40;99.90;;;;;;4998719;28;20760;-90
2021/12/03 08:09:40;;;;;;;4.47;1.73;;;3.40;99.90;;;;;;4999692;28;20206;-89
2021/12/03 08:12:13;;;;;;;4.63;2.40;;;3.40;99.90;;;;;;4999994;28;20233;-91
2021/12/03 08:14:46;;;;;;;4.67;1.80;;;3.40;99.90;;;;;;4997185;28;20210;-90
2021/12/03 08:17:22;;;;;;;5.60;2.20;;;3.30;99.90;;;;;;4984454;28;20634;-90
2021/12/03 08:19:54;;;;;;;4.77;1.70;;;3.30;99.90;;;;;;4980901;28;20210;-90
2021/12/03 08:25:12;;;;;;;7.47;1.50;;;3.30;99.90;;;;;;4994779;28;20198;-89
2021/12/03 08:27:45;;;;;;;4.87;1.47;;;3.30;99.90;;;;;;4984077;28;20238;-89
2021/12/03 08:30:18;;;;;;;5.67;1.67;;;3.30;99.90;;;;;;5008747;28;20226;-89
2021/12/03 08:32:52;;;;;;;5.40;1.53;;;3.30;99.90;;;;;;4997249;28;20206;-90
2021/12/03 08:35:25;;;;;;;7.37;1.87;;;3.20;99.90;;;;;;4991380;28;20207;-90
2021/12/03 08:37:58;;;;;;;6.47;2.10;;;3.20;99.90;;;;;;4983241;28;20213;-89
2021/12/03 08:40:30;;;;;;;7.30;1.63;;;3.20;99.90;;;;;;4999329;28;20684;-87
2021/12/03 08:43:03;;;;;;;6.20;2.30;;;3.20;99.90;;;;;;4998235;28;20245;-89
2021/12/03 08:45:40;;;;;;;5.07;2.30;;;3.20;99.90;;;;;;4993712;28;20289;-90
2021/12/03 08:48:14;;;;;;;8.10;2.10;;;3.10;99.90;;;;;;4997548;28;20233;-90
2021/12/03 08:50:52;;;;;;;7.83;2.53;;;3.10;99.90;;;;;;5005350;28;20221;-89
2021/12/03 08:56:23;;;;;;;8.73;2.17;;;3.10;99.90;;;;;;4944003;28;20210;-89
2021/12/03 08:58:55;;;;;;;11.30;2.87;;;3.10;99.90;;;;;;4997038;28;20210;-89
2021/12/03 09:01:28;;;;;;;5.30;2.10;;;3.10;99.90;;;;;;4985207;28;20205;-89
2021/12/03 09:04:03;;;;;;;6.40;2.13;;;3.10;99.90;;;;;;4989865;28;20215;-89
2021/12/03 09:06:34;;;;;;;8.27;2.13;;;3.00;99.90;;;;;;4991701;28;20216;-89
2021/12/03 09:09:07;;;;;;;6.73;2.37;;;3.10;99.90;;;;;;4987546;28;20246;-89
2021/12/03 09:11:40;;;;;;;7.00;2.53;;;3.00;99.90;;;;;;5001580;28;20218;-90
2021/12/03 09:14:18;;;;;;;11.43;2.97;;;3.00;99.90;;;;;;5002106;28;20233;-89
2021/12/03 09:16:56;;;;;;;6.60;2.33;;;3.00;99.90;;;;;;4983896;28;20297;-89
2021/12/03 09:19:35;;;;;;;6.00;2.40;;;3.00;99.90;;;;;;4994877;28;20206;-89
2021/12/03 09:22:09;;;;;;;10.33;2.20;;;3.00;99.90;;;;;;4998935;28;20335;-89
2021/12/03 09:24:40;;;;;;;5.17;1.80;;;3.00;99.90;;;;;;5000289;28;20195;-90
2021/12/03 09:27:16;;;;;;;7.70;1.77;;;3.00;99.90;;;;;;5010968;28;20285;-90
2021/12/03 09:29:50;;;;;;;5.83;2.13;;;3.00;99.90;;;;;;5015487;28;20197;-90
2021/12/03 09:32:25;;;;;;;5.00;1.83;;;2.90;99.90;;;;;;5020012;28;20194;-90
2021/12/03 09:34:58;;;;;;;7.97;2.13;;;2.90;99.90;;;;;;5017438;28;20245;-90
2021/12/03 09:37:30;;;;;;;4.80;2.10;;;2.90;99.90;;;;;;5006438;28;20281;-90
2021/12/03 09:40:05;;;;;;;5.57;2.00;;;2.90;99.90;;;;;;4981424;28;20342;-90
2021/12/03 09:42:38;;;;;;;6.00;1.67;;;2.80;99.90;;;;;;4981240;28;20295;-90
2021/12/03 09:45:13;;;;;;;6.10;2.50;;;2.80;99.90;;;;;;4980350;28;20259;-90
2021/12/03 09:47:56;;;;;;;5.10;1.70;;;2.80;99.90;;;;;;5009245;23;20222;-87
2021/12/03 09:50:32;;;;;;;7.07;2.10;;;2.80;99.90;;;;;;4980885;28;20215;-89
2021/12/03 09:53:22;;;;;;;4.43;1.73;;;2.70;99.90;;;;;;4981098;28;20618;-89
2021/12/03 09:55:54;;;;;;;6.20;1.63;;;2.70;99.90;;;;;;4980208;28;20219;-89
2021/12/03 09:58:45;;;;;;;5.83;1.93;;;2.70;99.90;;;;;;4963972;28;20211;-90
2021/12/03 10:01:23;;;;;;;5.83;1.70;;;2.70;99.90;;;;;;4981118;28;20231;-90
2021/12/03 10:04:20;;;;;;;8.27;2.00;;;2.60;99.90;;;;;;4980563;28;20206;-90
2021/12/03 10:12:59;;;;;;;8.07;1.60;;;2.60;99.90;;;;;;4982557;28;20198;-91
2021/12/03 10:15:33;;;;;;;7.10;1.70;;;2.60;99.90;;;;;;4980279;28;20217;-90
2021/12/03 10:18:17;;;;;;;3.90;1.53;;;2.50;99.90;;;;;;4966758;28;20222;-89
2021/12/03 10:20:59;;;;;;;8.63;1.70;;;2.50;99.90;;;;;;4955205;28;20207;-88
2021/12/03 10:29:24;;;;;;;10.13;1.70;;;2.50;99.90;;;;;;4962870;29;20278;-89
2021/12/03 10:46:53;;;;;;;4.13;1.40;;;2.30;99.90;;;;;;4999323;27;4524806;-90
2021/12/03 11:07:55;;;;;;;7.23;1.70;;;2.30;99.90;;;;;;5115236;28;20255;-90
2021/12/03 11:16:56;;;;;;;4.23;1.50;;;2.30;99.90;;;;;;5113998;28;20642;-91
2021/12/03 11:46:17;;;;;;;3.77;1.10;;;2.20;99.90;;;;;;4993921;28;20251;-90
2021/12/03 13:13:10;;;;;;;4.87;1.23;;;2.40;99.90;;;;;;4919245;29;20219;-88
2021/12/03 13:16:35;;;;;;;4.40;1.40;;;2.40;99.90;;;;;;4965023;28;20238;-90
2021/12/03 13:59:50;;;;;;;4.43;1.07;;;2.20;99.90;;;;;;4977687;28;20246;-91
2021/12/03 14:40:39;;;;;;;6.43;1.20;;;2.00;99.90;;;;;;4941173;29;20225;-89
2021/12/03 14:49:25;;;;;;;3.70;1.67;;;1.90;99.90;;;;;;4930350;29;20216;-89
2021/12/03 14:57:42;;;;;;;3.93;1.20;;;1.90;99.90;;;;;;4940016;29;20233;-90
2021/12/03 15:00:24;;;;;;;10.27;1.30;;;1.90;99.90;;;;;;4939657;29;20210;-91
2021/12/03 15:03:04;;;;;;;6.43;1.40;;;1.90;99.90;;;;;;4940967;29;20219;-90
2021/12/03 15:06:00;;;;;;;6.07;1.50;;;2.00;99.90;;;;;;4942156;29;20311;-90
2021/12/03 15:08:37;;;;;;;2.80;1.47;;;2.00;99.90;;;;;;4956644;28;20232;-89
2021/12/03 15:31:51;;;;;;;5.47;1.90;;;2.30;99.90;;;;;;4958489;29;20262;-90
2021/12/03 15:34:43;;;;;;;4.90;1.50;;;2.30;99.90;;;;;;4958607;29;20216;-90
2021/12/03 15:37:27;;;;;;;5.83;1.67;;;2.30;99.90;;;;;;4959616;29;20559;-90
2021/12/03 15:40:20;;;;;;;2.30;1.47;;;2.40;99.90;;;;;;4958383;28;20288;-90
2021/12/03 16:09:14;;;;;;;2.87;1.40;;;2.60;99.90;;;;;;4972661;29;20231;-89
2021/12/03 16:21:01;;;;;;;3.93;1.70;;;2.70;99.90;;;;;;5019173;28;20246;-90
2021/12/03 16:23:51;;;;;;;6.17;2.10;;;2.70;99.90;;;;;;5012514;28;20194;-88
2021/12/03 16:51:46;;;;;;;5.23;1.90;;;3.00;99.90;;;;;;4993633;28;20213;-89
2021/12/03 16:54:34;;;;;;;4.47;1.67;;;3.00;99.90;;;;;;4996072;28;20195;-89
2021/12/03 16:57:12;;;;;;;4.77;1.70;;;3.10;99.90;;;;;;4994183;28;20574;-88
2021/12/03 16:59:46;;;;;;;6.50;1.50;;;3.10;99.90;;;;;;4973367;28;20203;-89
2021/12/03 17:02:20;;;;;;;2.73;1.43;;;3.10;99.90;;;;;;4978000;28;20211;-89
2021/12/03 17:05:17;;;;;;;4.20;1.83;;;3.20;99.90;;;;;;4972625;28;21137;-89
2021/12/03 17:16:48;;;;;;;5.33;1.93;;;3.20;99.90;;;;;;4912025;29;20301;-88
2021/12/03 17:48:01;;;;;;;4.73;1.70;;;3.40;99.90;;;;;;4990551;28;20230;-89
2021/12/03 17:51:04;;;;;;;4.90;1.80;;;3.50;99.90;;;;;;4978918;28;20667;-88
2021/12/03 17:54:00;;;;;;;4.63;1.67;;;3.50;99.90;;;;;;4987519;28;20247;-89
2021/12/03 17:56:34;;;;;;;3.10;1.40;;;3.50;99.90;;;;;;4985176;28;20590;-89
2021/12/03 17:59:14;;;;;;;4.40;1.37;;;3.60;99.90;;;;;;4985223;28;20210;-89
2021/12/03 18:02:05;;;;;;;7.13;1.63;;;3.70;99.90;;;;;;4979166;28;20278;-88
2021/12/03 18:04:57;;;;;;;6.23;1.60;;;3.70;99.90;;;;;;4977838;28;20209;-89
2021/12/03 18:07:42;;;;;;;5.17;1.63;;;3.80;99.90;;;;;;4969734;28;20582;-90
2021/12/03 18:10:32;;;;;;;3.90;1.43;;;3.70;99.90;;;;;;4965046;28;20200;-90
2021/12/03 18:19:08;;;;;;;6.37;2.43;;;3.80;99.90;;;;;;4965007;29;20215;-89
2021/12/03 18:44:37;;;;;;;11.23;3.20;;;4.10;99.90;;;;;;4964751;29;20220;-91
2021/12/03 18:55:53;;;;;;;8.70;4.13;;;4.20;99.90;;;;;;4967703;28;20715;-88
2021/12/03 18:58:28;;;;;;;9.47;3.93;;;4.30;99.90;;;;;;4974799;28;20204;-88
2021/12/03 19:01:03;;;;;;;6.93;3.30;;;4.30;99.90;;;;;;4963593;29;20203;-89
2021/12/03 19:03:49;;;;;;;9.50;3.87;;;4.40;99.90;;;;;;4958537;29;20214;-89
2021/12/03 19:06:26;;;;;;;7.63;3.80;;;4.40;99.90;;;;;;4960686;28;20227;-89
2021/12/03 19:09:01;;;;;;;5.93;3.07;;;4.40;99.90;;;;;;4958428;29;20222;-88
2021/12/03 19:11:53;;;;;;;8.33;3.90;;;4.40;99.90;;;;;;4960556;29;20212;-88
2021/12/03 19:14:28;;;;;;;8.03;4.03;;;4.30;99.90;;;;;;4943222;29;20210;-89
2021/12/03 19:17:01;;;;;;;9.13;4.17;;;4.40;99.90;;;;;;4945241;29;20292;-89
2021/12/03 19:19:37;;;;;;;7.80;4.20;;;4.30;99.90;;;;;;4963185;29;20629;-89
2021/12/03 19:22:09;;;;;;;8.97;3.87;;;4.30;99.90;;;;;;4950028;29;20219;-90
2021/12/03 19:24:42;;;;;;;6.23;3.87;;;4.30;99.90;;;;;;4944639;29;20203;-87
2021/12/03 19:27:16;;;;;;;7.47;4.43;;;4.30;99.90;;;;;;4953940;29;20203;-89
2021/12/03 19:29:48;;;;;;;8.17;4.20;;;4.30;99.90;;;;;;4961836;29;20241;-89
2021/12/03 19:32:21;;;;;;;12.90;5.10;;;4.40;99.90;;;;;;4971015;28;20207;-88
2021/12/03 19:34:54;;;;;;;8.00;4.13;;;4.50;99.90;;;;;;4959005;29;20183;-89
2021/12/03 19:37:28;;;;;;;10.47;4.73;;;4.50;99.90;;;;;;4962219;29;20545;-89
2021/12/03 19:40:04;;;;;;;9.47;4.13;;;4.60;99.90;;;;;;4963545;29;20653;-89
2021/12/03 19:42:44;;;;;;;7.90;4.10;;;4.60;99.90;;;;;;4968053;29;20266;-89
2021/12/03 19:45:18;;;;;;;8.90;4.20;;;4.60;99.90;;;;;;4942174;29;20589;-89
2021/12/03 19:47:57;;;;;;;14.73;4.30;;;4.60;99.90;;;;;;4956915;29;20296;-89
2021/12/03 19:50:39;;;;;;;12.47;4.53;;;4.60;99.90;;;;;;4961856;29;20200;-91
2021/12/03 19:53:15;;;;;;;9.60;4.47;;;4.80;99.90;;;;;;4963431;29;20219;-89
2021/12/03 19:55:47;;;;;;;8.50;4.33;;;4.90;99.90;;;;;;4965069;28;20198;-88
2021/12/03 19:58:23;;;;;;;9.40;5.67;;;5.00;99.90;;;;;;4965924;28;20214;-90
2021/12/03 20:00:55;;;;;;;9.17;4.07;;;5.10;99.90;;;;;;4964779;28;20215;-89
2021/12/03 20:03:28;;;;;;;10.50;4.40;;;5.10;99.90;;;;;;4975257;28;20204;-89
2021/12/03 20:06:00;;;;;;;8.00;4.17;;;5.00;99.90;;;;;;5182724;23;20269;-89
2021/12/03 20:08:35;;;;;;;9.43;4.47;;;5.10;99.90;;;;;;4991890;28;20215;-90
2021/12/03 20:11:08;;;;;;;9.53;4.30;;;5.10;99.90;;;;;;4992984;28;20214;-88
2021/12/03 20:13:48;;;;;;;8.10;3.97;;;5.00;99.90;;;;;;4988902;28;20238;-89
2021/12/03 20:16:28;;;;;;;6.50;4.00;;;5.10;99.90;;;;;;4985627;28;20202;-89
2021/12/03 20:19:05;;;;;;;8.23;3.83;;;5.20;99.90;;;;;;4990189;28;20627;-88
2021/12/03 20:21:40;;;;;;;8.17;4.10;;;5.30;99.90;;;;;;4980730;28;20206;-91
2021/12/03 20:26:59;;;;;;;9.37;4.13;;;5.40;99.90;;;;;;4974556;28;20195;-89
2021/12/03 20:32:24;;;;;;;9.43;4.40;;;5.40;99.90;;;;;;4982203;28;20210;-87
2021/12/03 20:35:09;;;;;;;7.93;4.23;;;5.60;99.90;;;;;;4978486;28;20233;-88
2021/12/03 20:37:45;;;;;;;9.23;4.77;;;5.50;99.90;;;;;;4967494;28;20222;-88
2021/12/03 20:40:19;;;;;;;8.30;4.07;;;5.40;99.90;;;;;;4980617;28;20278;-88
2021/12/03 20:43:03;;;;;;;8.97;4.20;;;5.40;99.90;;;;;;4982104;28;20294;-88
2021/12/03 20:48:40;;;;;;;7.53;4.00;;;5.50;99.90;;;;;;4998512;28;20187;-88
2021/12/03 20:54:16;;;;;;;11.33;5.50;;;5.60;99.90;;;;;;4980914;28;20203;-87